createdAt,value
2023-04-24T00:04:59.778Z,445.31
2023-04-24T00:10:07.051Z,445.68
2023-04-24T00:15:14.348Z,445.29
2023-04-24T00:20:21.626Z,445.35
2023-04-24T00:25:28.894Z,445.52
2023-04-24T00:30:36.192Z,446.16
2023-04-24T00:35:43.501Z,445.18
2023-04-24T00:40:50.737Z,447.26
2023-04-24T00:45:58.041Z,444.76
2023-04-24T00:51:05.248Z,446.93
2023-04-24T00:56:47.613Z,446.51
2023-04-24T01:02:33.545Z,446.64
2023-04-24T01:08:21.375Z,444.48
2023-04-24T01:13:51.343Z,444.16
2023-04-24T01:19:12.719Z,445.85
2023-04-24T01:30:52.701Z,445.13
2023-04-24T01:36:09.154Z,447.99
2023-04-24T01:45:52.039Z,444.61
2023-04-24T01:47:11.960Z,445.35
2023-04-24T01:52:20.718Z,444.69
2023-04-24T01:58:08.534Z,445.17
2023-04-24T02:05:55.486Z,445.06
2023-04-24T02:09:39.016Z,445.18
2023-04-24T02:15:36.803Z,442.96
2023-04-24T02:21:19.143Z,447.09
2023-04-24T02:26:26.897Z,446.59
2023-04-24T02:37:35.945Z,445.41
2023-04-24T02:42:52.634Z,445.92
2023-04-24T02:48:00.045Z,445.51
2023-04-24T02:53:51.268Z,445.47
2023-04-24T02:59:48.985Z,446.96
2023-04-24T03:05:04.615Z,445.61
2023-04-24T03:10:51.941Z,446.18
2023-04-24T03:16:14.510Z,446.40
2023-04-24T03:21:28.599Z,446.57
2023-04-24T03:27:46.263Z,446.02
2023-04-24T03:33:14.320Z,446.03
2023-04-24T03:38:52.279Z,446.93
2023-04-24T03:44:24.366Z,446.72
2023-04-24T03:49:50.687Z,446.03
2023-04-24T03:55:48.042Z,445.13
2023-04-24T04:00:56.906Z,445.41
2023-04-24T04:06:11.578Z,447.36
2023-04-24T04:11:29.533Z,446.17
2023-04-24T04:16:38.954Z,447.32
2023-04-24T04:22:09.716Z,446.51
2023-04-24T04:27:56.907Z,446.47
2023-04-24T04:33:48.419Z,443.44
2023-04-24T04:38:52.407Z,442.50
2023-04-24T04:44:15.871Z,443.17
2023-04-24T04:49:35.731Z,443.27
2023-04-24T04:54:43.604Z,442.46
2023-04-24T04:59:51.242Z,442.77
2023-04-24T05:04:59.491Z,443.25
2023-04-24T05:11:10.084Z,442.54
2023-04-24T05:15:19.684Z,443.75
2023-04-24T05:20:27.640Z,442.96
2023-04-24T05:25:50.274Z,442.39
2023-04-24T05:31:02.709Z,443.01
2023-04-24T05:36:45.345Z,443.39
2023-04-24T05:42:27.978Z,443.52
2023-04-24T05:47:59.598Z,442.92
2023-04-24T05:53:07.572Z,440.62
2023-04-24T05:58:50.260Z,439.94
2023-04-24T06:04:00.192Z,438.47
2023-04-24T06:09:12.331Z,436.79
2023-04-24T06:14:19.870Z,435.13
2023-04-24T06:19:27.638Z,434.81
2023-04-24T06:25:10.331Z,434.66
2023-04-24T06:30:52.913Z,433.72
2023-04-24T06:36:21.206Z,432.17
2023-04-24T06:41:13.274Z,430.77
2023-04-24T06:46:26.474Z,429.94
2023-04-24T06:51:40.317Z,429.30
2023-04-24T06:56:56.214Z,429.64
2023-04-24T07:02:03.764Z,429.61
2023-04-24T07:07:11.515Z,429.04
2023-04-24T07:12:58.897Z,429.72
2023-04-24T07:18:06.323Z,429.36
2023-04-24T07:23:14.051Z,428.60
2023-04-24T07:28:21.717Z,427.46
2023-04-24T07:33:39.598Z,428.52
2023-04-24T07:38:47.219Z,427.79
2023-04-24T07:43:54.882Z,427.05
2023-04-24T07:49:13.043Z,427.16
2023-04-24T07:54:18.355Z,427.04
2023-04-24T07:59:30.623Z,428.04
2023-04-24T08:04:42.593Z,427.80
2023-04-24T08:09:50.095Z,427.85
2023-04-24T08:15:06.865Z,428.59
2023-04-24T08:20:17.324Z,428.55
2023-04-24T08:25:24.826Z,428.61
2023-04-24T08:31:22.943Z,427.64
2023-04-24T08:36:46.478Z,427.59
2023-04-24T08:41:57.294Z,425.92
2023-04-24T08:47:08.607Z,424.13
2023-04-24T08:52:20.754Z,418.19
2023-04-24T08:57:28.537Z,421.87
2023-04-24T09:02:36.532Z,422.55
2023-04-24T09:07:43.679Z,422.22
2023-04-24T09:12:51.257Z,423.36
2023-04-24T09:17:59.186Z,423.30
2023-04-24T09:23:42.367Z,422.83
2023-04-24T09:29:15.522Z,424.17
2023-04-24T09:34:28.274Z,424.95
2023-04-24T09:39:40.633Z,424.96
2023-04-24T09:44:48.057Z,425.80
2023-04-24T09:50:36.413Z,421.62
2023-04-24T09:55:44.273Z,419.87
2023-04-24T10:00:51.788Z,419.07
2023-04-24T10:05:59.429Z,419.19
2023-04-24T10:11:07.082Z,419.25
2023-04-24T10:16:14.663Z,418.70
2023-04-24T10:21:22.144Z,418.81
2023-04-24T10:26:34.316Z,418.46
2023-04-24T10:31:48.192Z,418.88
2023-04-24T10:36:58.023Z,418.71
2023-04-24T10:42:09.954Z,418.89
2023-04-24T10:47:20.124Z,418.03
2023-04-24T10:52:27.651Z,417.67
2023-04-24T10:57:42.771Z,416.20
2023-04-24T11:03:16.361Z,416.42
2023-04-24T11:08:14.568Z,415.86
2023-04-24T11:13:22.047Z,416.63
2023-04-24T11:18:29.722Z,417.01
2023-04-24T11:23:40.571Z,417.33
2023-04-24T11:28:48.341Z,417.57
2023-04-24T11:33:57.991Z,418.01
2023-04-24T11:39:16.090Z,418.27
2023-04-24T11:44:22.580Z,417.98
2023-04-24T11:49:33.750Z,418.44
2023-04-24T11:54:41.451Z,419.17
2023-04-24T11:59:52.247Z,419.29
2023-04-24T12:05:14.897Z,419.63
2023-04-24T12:10:22.283Z,420.00
2023-04-24T12:15:34.682Z,420.72
2023-04-24T12:20:42.238Z,420.22
2023-04-24T12:25:54.759Z,419.25
2023-04-24T12:31:02.300Z,418.07
2023-04-24T12:36:14.848Z,414.83
2023-04-24T12:41:31.763Z,416.52
2023-04-24T12:46:39.805Z,417.73
2023-04-24T12:51:47.367Z,418.05
2023-04-24T12:56:58.305Z,418.97
2023-04-24T13:02:09.377Z,418.01
2023-04-24T13:07:17.781Z,416.81
2023-04-24T13:12:25.181Z,414.96
2023-04-24T13:17:41.407Z,416.04
2023-04-24T13:22:49.268Z,416.30
2023-04-24T13:27:56.911Z,416.29
2023-04-24T13:33:15.188Z,417.72
2023-04-24T13:38:35.772Z,418.04
2023-04-24T13:43:43.588Z,418.00
2023-04-24T13:48:57.580Z,418.18
2023-04-24T13:54:05.487Z,417.82
2023-04-24T13:59:13.034Z,418.70
2023-04-24T14:04:23.622Z,418.92
2023-04-24T14:10:16.760Z,419.71
2023-04-24T14:14:45.377Z,420.14
2023-04-24T14:20:08.649Z,420.44
2023-04-24T14:25:19.545Z,420.91
2023-04-24T14:30:29.126Z,421.40
2023-04-24T14:36:03.952Z,420.83
2023-04-24T14:41:26.914Z,420.41
2023-04-24T14:47:01.996Z,419.38
2023-04-24T14:52:14.796Z,419.66
2023-04-24T14:57:22.376Z,420.37
2023-04-24T15:02:29.972Z,420.93
2023-04-24T15:07:52.707Z,421.30
2023-04-24T15:12:51.569Z,422.14
2023-04-24T15:18:04.942Z,421.38
2023-04-24T15:23:12.602Z,422.06
2023-04-24T15:28:20.170Z,422.76
2023-04-24T15:33:37.732Z,422.96
2023-04-24T15:38:45.010Z,423.18
2023-04-24T15:44:28.282Z,422.89
2023-04-24T15:49:36.299Z,422.56
2023-04-24T15:54:52.886Z,420.94
2023-04-24T16:00:07.178Z,419.32
2023-04-24T16:05:29.949Z,417.15
2023-04-24T16:10:37.406Z,416.71
2023-04-24T16:15:45.052Z,418.52
2023-04-24T16:20:52.379Z,419.02
2023-04-24T16:25:59.551Z,419.79
2023-04-24T16:31:06.791Z,418.89
2023-04-24T16:36:13.933Z,419.08
2023-04-24T16:41:21.118Z,419.30
2023-04-24T16:46:28.426Z,419.46
2023-04-24T16:51:35.695Z,420.25
2023-04-24T16:56:42.856Z,420.48
2023-04-24T17:01:50.033Z,420.51
2023-04-24T17:06:57.534Z,420.26
2023-04-24T17:12:04.737Z,421.07
2023-04-24T17:17:12.195Z,420.97
2023-04-24T17:22:19.946Z,420.46
2023-04-24T17:27:27.275Z,420.92
2023-04-24T17:32:34.474Z,421.03
2023-04-24T17:37:42.154Z,421.26
2023-04-24T17:42:49.752Z,421.12
2023-04-24T17:47:57.351Z,420.79
2023-04-24T17:53:05.633Z,420.22
2023-04-24T17:58:12.902Z,419.11
2023-04-24T18:03:20.960Z,416.76
2023-04-24T18:08:28.463Z,414.03
2023-04-24T18:13:36.161Z,415.48
2023-04-24T18:18:43.870Z,416.39
2023-04-24T18:23:51.621Z,416.22
2023-04-24T18:28:59.321Z,415.47
2023-04-24T18:34:06.929Z,414.53
2023-04-24T18:39:14.637Z,415.03
2023-04-24T18:44:22.380Z,414.52
2023-04-24T18:49:30.185Z,414.32
2023-04-24T18:54:37.992Z,414.12
2023-04-24T18:59:45.508Z,413.50
2023-04-24T19:04:53.132Z,413.62
2023-04-24T19:10:01.076Z,413.22
2023-04-24T19:15:08.605Z,413.05
2023-04-24T19:20:15.928Z,412.83
2023-04-24T19:25:23.509Z,412.82
2023-04-24T19:30:31.707Z,412.55
2023-04-24T19:35:39.086Z,412.62
2023-04-24T19:40:46.659Z,412.04
2023-04-24T19:45:54.076Z,412.07
2023-04-24T19:51:01.551Z,411.54
2023-04-24T19:56:08.928Z,411.37
2023-04-24T20:01:16.202Z,410.69
2023-04-24T20:06:23.494Z,411.01
2023-04-24T20:11:30.811Z,410.75
2023-04-24T20:16:38.341Z,410.70
2023-04-24T20:21:45.918Z,410.50
2023-04-24T20:26:53.433Z,410.54
2023-04-24T20:32:01.136Z,410.85
2023-04-24T20:37:09.049Z,411.35
2023-04-24T20:42:16.408Z,411.35
2023-04-24T20:47:23.878Z,412.00
2023-04-24T20:52:31.157Z,411.91
2023-04-24T20:57:38.571Z,412.04
2023-04-24T21:02:45.894Z,411.99
2023-04-24T21:07:53.006Z,411.76
2023-04-24T21:13:00.333Z,412.46
2023-04-24T21:18:07.532Z,412.61
2023-04-24T21:23:14.780Z,413.45
2023-04-24T21:28:21.958Z,412.92
2023-04-24T21:33:29.236Z,412.52
2023-04-24T21:38:36.513Z,412.76
2023-04-24T21:43:45.780Z,412.66
2023-04-24T21:48:51.258Z,413.25
2023-04-24T21:53:58.491Z,413.72
2023-04-24T21:59:08.515Z,414.53
2023-04-24T22:04:16.017Z,415.40
2023-04-24T22:09:23.065Z,415.40
2023-04-24T22:14:30.384Z,415.48
2023-04-24T22:19:37.849Z,415.94
2023-04-24T22:24:45.274Z,416.29
2023-04-24T22:29:52.648Z,417.67
2023-04-24T22:34:59.872Z,417.65
2023-04-24T22:40:07.101Z,418.61
2023-04-24T22:45:14.415Z,418.62
2023-04-24T22:50:21.640Z,418.75
2023-04-24T22:55:29.416Z,418.80
2023-04-24T23:01:19.017Z,418.90
2023-04-24T23:07:04.302Z,419.60
2023-04-24T23:12:39.469Z,419.62
2023-04-24T23:18:25.329Z,420.30
2023-04-24T23:24:07.753Z,420.07
2023-04-24T23:29:50.374Z,419.82
2023-04-24T23:35:36.162Z,420.59
2023-04-24T23:41:38.637Z,421.52
2023-04-24T23:46:36.700Z,422.40
2023-04-24T23:57:42.354Z,420.75
